Valley Peak, Santa Cruz Island Reserve, California Weather observations

Data are for 10 minute period ending at time listed.
 Day   Time   Solar   Ave.   Ave.  Ave.  Vector  Max.   Baro.   Total    
  of    of     Rad.   Air    Rel.  Wind   Wind   Wind  Press.  Precip.   
Year   Day            Temp.  Hum.  Speed  Dir.   Gust                    
2014   (PST)  Kw/m2    F      %     mph   deg.    mph    mb.     in.     
-------------------------------------------------------------------------
 108   19:30   0.00   51.9    88   10.2    14    12.9   963.7    0.00 
 108   19:40   0.00   52.2    87   10.3    10    12.3   963.7    0.00 
 108   19:50   0.00   52.3    87   10.7    12    12.1   963.8    0.00 
 108   20:00   0.00   52.1    88   11.4    14    13.0   963.7    0.00 
 108   20:10   0.00   51.6    90   10.8    16    12.2   963.8    0.00 
 108   20:20   0.00   51.6    90   10.2    15    11.8   963.8    0.00 
 108   20:30   0.00   52.1    88   10.1    12    13.2   963.9    0.00 
 108   20:40   0.00   53.2    85   10.2    10    13.5   964.0    0.00 
 108   20:50   0.00   52.4    87   10.9    20    12.9   964.1    0.00 
 108   21:00   0.00   52.1    88   11.1    20    13.6   964.2    0.00 
 108   21:10   0.00   52.5    87   11.6    14    14.5   964.3    0.00 
 108   21:20   0.00   52.2    87   11.2    15    13.4   964.4    0.00 
 108   21:30   0.00   51.7    89   11.2    12    14.0   964.3    0.00 
 108   21:40   0.00   52.2    87   12.1    18    14.8   964.3    0.00 
 108   21:50   0.00   51.6    89   10.6    16    13.4   964.4    0.00 
 108   22:00   0.00   52.0    88   10.2    11    12.3   964.4    0.00 
 108   22:10   0.00   53.0    86   10.3     4    13.1   964.4    0.00 
 108   22:20   0.00   54.8    80   10.4     3    12.7   964.4    0.00 
 108   22:30   0.00   53.9    82   10.3    11    12.7   964.4    0.00 
 108   22:40   0.00   53.4    84    8.8    17    10.3   964.4    0.00 
 108   22:50   0.00   53.8    83    9.9    10    11.8   964.4    0.00 
 108   23:00   0.00   54.0    82    8.4    14    10.4   964.4    0.00 
 108   23:10   0.00   55.3    79    8.9     3    10.2   964.4    0.00 
 108   23:20   0.00   56.6    76    9.2   357    10.2   964.4    0.00 
 108   23:30   0.00   55.6    78    7.4    16     8.8   964.4    0.00 
 108   23:40   0.00   54.4    81    6.1    27     7.7   964.4    0.00 
 108   23:50   0.00   54.2    82    5.0    22     6.3   964.3    0.00 
 109    0:00   0.00   54.8    81    5.5    28     6.4   964.3    0.00 
 109    0:10   0.00   55.1    80    5.4    42     6.1   964.3    0.00 
 109    0:20   0.00   55.2    80    5.7    62     6.6   964.3    0.00 
 109    0:30   0.00   55.1    80    6.5    78     8.3   964.1    0.00 
 109    0:40   0.00   54.6    82    7.3    95     8.6   964.1    0.00 
 109    0:50   0.00   54.4    82    8.3   112    10.4   963.9    0.00 
 109    1:00   0.00   54.9    80    7.2   121     9.2   963.9    0.00 
 109    1:10   0.00   54.8    80    6.3   126     7.6   964.0    0.00 
 109    1:20   0.00   54.6    81    6.7   119     8.6   964.0    0.00 
 109    1:30   0.00   54.5    81    6.9   119     8.8   964.0    0.00 
 109    1:40   0.00   54.1    82    6.5   122     8.1   964.0    0.00 
 109    1:50   0.00   53.7    83    6.6   127     8.1   964.0    0.00 
 109    2:00   0.00   53.4    84    5.1   117     6.7   964.1    0.00 
 109    2:10   0.00   53.2    85    5.3   120     6.1   964.2    0.00 
 109    2:20   0.00   53.0    86    5.2   132     6.5   964.3    0.00 
 109    2:30   0.00   52.7    86    5.0   114     6.4   964.4    0.00 
 109    2:40   0.00   52.5    87    3.2    68     6.2   964.4    0.00 
 109    2:50   0.00   52.1    88    6.1   121     7.5   964.4    0.00 
 109    3:00   0.00   52.0    89    5.3   137     7.7   964.3    0.00 
 109    3:10   0.00   51.7    90    6.5   137     8.8   964.3    0.00 
 109    3:20   0.00   51.7    91    7.0   134     8.8   964.4    0.00 
 109    3:30   0.00   51.6    92    6.4   138     7.6   964.5    0.00 
 109    3:40   0.00   51.5    91    6.1   133     7.6   964.5    0.00 
 109    3:50   0.00   51.5    91    5.9   131     7.5   964.5    0.00 
 109    4:00   0.00   51.4    92    6.3   139     8.1   964.6    0.00 
 109    4:10   0.00   51.5    92    4.8   141     6.7   964.8    0.00 
 109    4:20   0.00   51.5    91    5.3   143     6.9   964.8    0.00 
 109    4:30   0.00   51.4    92    5.8   139     6.9   964.7    0.00 
 109    4:40   0.00   51.4    92    5.8   138     6.7   964.8    0.00 
 109    4:50   0.00   51.5    92    5.0   144     6.2   964.9    0.00 
 109    5:00   0.00   51.7    92    4.6   155     5.8   964.9    0.00 
 109    5:10   0.00   51.7    91    5.0   155     5.8   964.9    0.00 
 109    5:20   0.00   52.2    90    5.3   164     5.8   965.0    0.00 
 109    5:30   0.00   52.5    89    5.6   163     6.1   965.1    0.00 
 109    5:40   0.01   52.6    89    4.8   172     5.6   965.2    0.00 
 109    5:50   0.04   52.9    89    4.4   161     5.1   965.2    0.00 
 109    6:00   0.07   53.2    88    4.2   158     5.0   965.3    0.00 
 109    6:10   0.10   53.6    87    4.1   169     4.9   965.5    0.00 
 109    6:20   0.14   54.2    86    3.7   186     4.2   965.6    0.00 
 109    6:30   0.18   54.8    84    2.4   192     3.2   965.8    0.00 
 109    6:40   0.22   55.5    81    1.4   244     2.9   965.9    0.00 
 109    6:50   0.28   56.6    79    0.5   266     1.8   965.9    0.00 
 109    7:00   0.22   56.9    81    1.6   354     3.9   966.0    0.00 
 109    7:10   0.20   57.1    80    0.3    95     1.8   966.0    0.00 
 109    7:20   0.28   57.0    80    0.3   236     0.9   966.1    0.00 
 109    7:30   0.42   57.8    80    1.6    54     3.7   966.1    0.00 
 109    7:40   0.50   59.5    77    1.3    38     3.9   966.2    0.00 
 109    7:50   0.50   60.7    75    3.5    55     5.8   966.3    0.00 
 109    8:00   0.51   62.4    70    2.7    54     5.4   966.3    0.00 
 109    8:10   0.45   62.2    70    1.8    21     4.3   966.4    0.00 
 109    8:20   0.45   61.9    70    1.2   337     4.0   966.5    0.00 
 109    8:30   0.54   61.9    70    1.7    38     4.5   966.5    0.00 
 109    8:40   0.58   62.7    69    2.2    32     5.8   966.6    0.00 
 109    8:50   0.56   64.5    65    3.0    62     5.3   966.6    0.00 
 109    9:00   0.59   64.7    65    3.0    62     5.4   966.7    0.00 
 109    9:10   0.68   65.5    64    3.8    54     7.2   966.8    0.00 
 109    9:20   0.63   64.9    64    3.6    54     7.0   966.9    0.00 
 109    9:30   0.73   64.7    64    3.1    52     5.9   966.9    0.00 
 109    9:40   0.78   64.9    64    3.1    46     6.1   967.1    0.00 
 109    9:50   0.78   63.8    66    2.9    26     6.0   967.1    0.00 
 109   10:00   0.82   64.4    65    2.7    46     6.2   967.1    0.00 
 109   10:10   0.85   66.5    62    2.7    66     5.5   967.1    0.00 
 109   10:20   0.86   67.9    60    3.6    63     6.1   967.1    0.00 
 109   10:30   0.87   68.5    59    2.8    59     7.5   967.0    0.00 
 109   10:40   0.88   68.8    59    2.6    90     6.7   967.0    0.00 
 109   10:50   0.86   69.9    58    2.4    88     6.4   966.9    0.00 
 109   11:00   0.85   69.8    58    3.3    70     6.6   966.8    0.00 
 109   11:10   0.92   70.8    56    3.8    62     6.2   966.7    0.00 
 109   11:20   0.79   71.5    55    3.0    92     6.2   966.7    0.00 
 109   11:30   0.90   72.4    54    3.3   129     7.4   966.6    0.00 
 109   11:40   0.94   73.2    52    2.5   122     6.6   966.5    0.00 
 109   11:50   0.92   72.2    53    3.0   127     6.1   966.5    0.00 
 109   12:00   0.93   72.8    53    2.8   136     7.2   966.5    0.00 
 109   12:10   0.93   73.1    52    3.9   139     7.3   966.4    0.00 
 109   12:20   0.93   71.6    54    3.7   139     7.8   966.3    0.00 
 109   12:30   0.93   73.0    52    2.9   157     6.7   966.3    0.00 
 109   12:40   0.92   72.5    53    4.4   163     7.9   966.3    0.00 
 109   12:50   0.90   71.8    54    4.5   165     8.6   966.3    0.00 
 109   13:00   0.85   69.7    57    4.9   163     8.8   966.2    0.00 
 109   13:10   0.89   69.7    57    4.5   170     9.2   966.2    0.00 
 109   13:20   0.87   70.7    56    4.0   169     8.3   966.1    0.00 
 109   13:30   0.85   71.2    54    4.2   163     9.1   966.1    0.00 
 109   13:40   0.83   70.6    55    3.8   152     7.7   966.1    0.00 
 109   13:50   0.82   69.5    56    4.6   170     9.6   966.1    0.00 
 109   14:00   0.80   70.6    54    3.2   156     6.9   966.0    0.00 
 109   14:10   0.77   73.0    51    2.5   148     8.3   966.0    0.00 
 109   14:20   0.75   72.7    51    3.2   162     6.0   965.9    0.00 
 109   14:30   0.72   72.2    52    2.6    79     5.5   965.9    0.00 
 109   14:40   0.69   71.7    54    3.3    51     6.1   965.9    0.00 
 109   14:50   0.67   70.2    56    2.4    13     6.6   965.9    0.00 
 109   15:00   0.64   70.7    56    1.9    74     5.0   965.8    0.00 
 109   15:10   0.61   73.5    52    3.0    65     6.5   965.8    0.00 
 109   15:20   0.57   72.4    53    5.3    41     7.5   965.8    0.00 
 109   15:30   0.54   70.0    56    4.6    40     6.6   965.9    0.00 
 109   15:40   0.51   69.4    57    2.6    35     3.9   965.9    0.00 
 109   15:50   0.48   68.4    58    3.6   351     5.6   965.9    0.00 
 109   16:00   0.44   68.1    59    4.1     8     6.2   965.8    0.00 
 109   16:10   0.41   69.8    56    2.8    14     5.2   965.8    0.00 
 109   16:20   0.37   68.6    57    4.2   321     6.9   965.8    0.00 
 109   16:30   0.34   69.1    56    5.4   318     9.3   965.7    0.00 
 109   16:40   0.29   66.6    61    8.2    26    11.6   965.6    0.00 
 109   16:50   0.23   62.8    65    8.3     2    14.5   965.6    0.00 
 109   17:00   0.22   64.1    61    5.4     5     9.4   965.6    0.00 
 109   17:10   0.17   64.5    58    7.3     6    12.6   965.5    0.00 
 109   17:20   0.18   64.0    59    8.3    19    11.0   965.6    0.00 
 109   17:30   0.16   63.2    59    7.5    20    10.7   965.5    0.00 
 109   17:40   0.13   62.9    58    9.0    22    15.3   965.5    0.00 
 109   17:50   0.09   62.7    56    8.1    17    11.5   965.5    0.00 
 109   18:00   0.07   62.1    56    8.7    24    13.6   965.5    0.00 
 109   18:10   0.04   61.5    56    7.6    19    14.0   965.5    0.00 
 109   18:20   0.02   60.8    56    8.9     8    16.4   965.5    0.00 
 109   18:30   0.01   61.2    52   10.0   355    15.1   965.6    0.00 
 109   18:40   0.00   61.7    51    8.8   357    17.3   965.6    0.00 
 109   18:50   0.00   61.0    53    8.7   358    14.3   965.7    0.00 
 109   19:00   0.00   61.6    52    8.7   343    13.5   965.7    0.00 
 109   19:10   0.00   61.3    52    9.3   344    13.2   965.8    0.00 
 109   19:20   0.00   60.8    54    8.6   354    12.3   966.0    0.00 

Return to Valley Peak, Santa Cruz Island Reserve graphs page.


Western Regional Climate Center,wrcc@dri.edu